Time;durP1;ratioP1;P1;durP2;ratioP2;P2;SDS_P1;SDS_P2;PMS_P1;PMS_P2;Temp;Humidity;BMP_temperature;BMP_pressure;BME280_temperature;BME280_humidity;BME280_pressure;Samples;Min_cycle;Max_cycle;Signal;HPM_P1;HPM_P2
2022/03/15 00:02:22;;;;;;;32.47;12.05;;;3.30;99.90;;;;;;5012550;28;20033;-93
2022/03/15 00:04:48;;;;;;;29.63;13.33;;;;;;;;;;5031644;28;20065;-93
2022/03/15 00:07:15;;;;;;;30.43;11.83;;;2.60;99.90;;;;;;5009528;28;20033;-93
2022/03/15 00:09:42;;;;;;;30.40;11.47;;;;;;;;;;4999022;28;20179;-90
2022/03/15 00:12:09;;;;;;;25.67;11.07;;;2.60;99.90;;;;;;5013225;28;20437;-90
2022/03/15 00:14:38;;;;;;;24.93;10.80;;;2.50;99.90;;;;;;4998527;28;20037;-91
2022/03/15 00:17:05;;;;;;;27.27;11.17;;;2.50;99.90;;;;;;5041736;28;20041;-90
2022/03/15 00:19:32;;;;;;;24.97;10.60;;;3.30;99.90;;;;;;4999314;28;20134;-91
2022/03/15 00:21:57;;;;;;;26.60;10.30;;;2.90;99.90;;;;;;5029275;28;20451;-90
2022/03/15 00:24:23;;;;;;;25.07;10.53;;;2.40;99.90;;;;;;5031846;28;20025;-91
2022/03/15 00:26:49;;;;;;;31.87;11.23;;;2.80;99.90;;;;;;5032986;28;20041;-93
2022/03/15 00:29:17;;;;;;;20.50;9.27;;;3.00;99.90;;;;;;5015373;28;20029;-91
2022/03/15 00:31:44;;;;;;;18.35;9.60;;;2.30;99.90;;;;;;5029819;28;20537;-91
2022/03/15 00:34:11;;;;;;;20.63;9.73;;;2.30;99.90;;;;;;5028794;28;20038;-92
2022/03/15 00:36:37;;;;;;;24.13;10.60;;;2.20;99.90;;;;;;5015733;28;20041;-92
2022/03/15 00:39:04;;;;;;;26.13;10.73;;;2.20;99.90;;;;;;5033128;28;20045;-92
2022/03/15 00:41:30;;;;;;;23.80;10.50;;;1.70;99.90;;;;;;5031044;28;20508;-92
2022/03/15 00:43:56;;;;;;;27.70;10.20;;;2.40;99.90;;;;;;5028741;28;20072;-91
2022/03/15 00:46:22;;;;;;;29.50;11.07;;;2.10;99.90;;;;;;5015520;28;20458;-91
2022/03/15 00:48:47;;;;;;;29.60;11.73;;;2.00;99.90;;;;;;4975863;28;20054;-91
2022/03/15 00:51:13;;;;;;;20.30;9.77;;;2.00;99.90;;;;;;4979224;28;20069;-91
2022/03/15 00:53:39;;;;;;;21.13;10.00;;;2.60;99.90;;;;;;4997246;28;20041;-92
2022/03/15 00:56:05;;;;;;;21.57;10.07;;;2.00;99.90;;;;;;4979563;28;20505;-92
2022/03/15 00:58:31;;;;;;;23.80;10.30;;;2.00;99.90;;;;;;4979791;28;20041;-92
2022/03/15 01:00:56;;;;;;;22.50;9.80;;;3.10;99.90;;;;;;4979338;28;20041;-91
2022/03/15 01:03:22;;;;;;;17.73;8.63;;;1.90;99.90;;;;;;4963318;28;20049;-92
2022/03/15 01:05:48;;;;;;;22.13;8.90;;;1.80;99.90;;;;;;4976894;28;20030;-92
2022/03/15 01:08:14;;;;;;;23.70;9.37;;;1.80;99.90;;;;;;4997059;28;20034;-92
2022/03/15 01:10:41;;;;;;;23.03;9.03;;;2.60;99.90;;;;;;5008090;28;20033;-92
2022/03/15 01:13:07;;;;;;;24.23;10.00;;;2.40;99.90;;;;;;5009707;28;20053;-92
2022/03/15 01:15:42;;;;;;;27.97;10.13;;;1.90;99.90;;;;;;4961238;28;20045;-92
2022/03/15 01:18:09;;;;;;;28.52;10.90;;;1.90;99.90;;;;;;4995016;28;20369;-92
2022/03/15 01:20:37;;;;;;;24.43;10.87;;;2.40;99.90;;;;;;4993418;28;20042;-91
2022/03/15 01:23:03;;;;;;;27.70;10.60;;;2.70;99.90;;;;;;4993685;28;20113;-92
2022/03/15 01:25:30;;;;;;;23.63;10.00;;;2.50;99.90;;;;;;4993990;28;20124;-92
2022/03/15 01:27:56;;;;;;;29.87;11.47;;;2.60;99.90;;;;;;4996366;28;20129;-92
2022/03/15 01:30:22;;;;;;;22.33;10.23;;;3.20;99.90;;;;;;4978016;28;20461;-91
2022/03/15 01:32:48;;;;;;;25.20;10.17;;;1.90;99.90;;;;;;4993455;28;20065;-92
2022/03/15 01:35:15;;;;;;;22.03;10.03;;;1.80;99.90;;;;;;4963275;28;20499;-92
2022/03/15 01:37:40;;;;;;;29.90;11.73;;;1.90;99.90;;;;;;4978084;28;20033;-92
2022/03/15 01:40:07;;;;;;;25.43;10.87;;;1.90;99.90;;;;;;4982135;28;20127;-93
2022/03/15 01:42:33;;;;;;;26.80;11.17;;;2.00;99.90;;;;;;4995588;28;20124;-93
2022/03/15 01:45:03;;;;;;;32.67;13.00;;;2.20;99.90;;;;;;4979215;28;20437;-92
2022/03/15 01:47:28;;;;;;;26.90;13.00;;;2.20;99.90;;;;;;5022471;28;20057;-92
2022/03/15 01:49:54;;;;;;;28.10;12.13;;;2.30;99.90;;;;;;5029608;28;20050;-91
2022/03/15 01:52:20;;;;;;;30.67;12.07;;;2.50;99.90;;;;;;4993988;28;20399;-91
2022/03/15 01:54:46;;;;;;;28.60;12.07;;;2.60;99.90;;;;;;5033033;28;20037;-91
2022/03/15 01:57:12;;;;;;;24.97;12.40;;;4.00;99.90;;;;;;5047113;28;20037;-92
2022/03/15 01:59:39;;;;;;;28.83;12.73;;;3.10;99.90;;;;;;5000647;28;20095;-92
2022/03/15 02:02:05;;;;;;;26.20;12.57;;;3.00;99.90;;;;;;5030434;28;20046;-92
2022/03/15 02:04:32;;;;;;;28.77;12.13;;;3.20;99.90;;;;;;5032260;28;20370;-92
2022/03/15 02:07:12;;;;;;;26.93;12.80;;;4.30;99.90;;;;;;5034385;28;20108;-92
2022/03/15 02:09:39;;;;;;;29.25;12.45;;;3.30;99.90;;;;;;5050702;28;20380;-92
2022/03/15 02:12:06;;;;;;;27.67;11.43;;;3.80;99.90;;;;;;5033887;28;20456;-91
2022/03/15 02:14:31;;;;;;;30.90;13.20;;;3.50;99.90;;;;;;5029901;28;20061;-91
2022/03/15 02:16:57;;;;;;;26.05;12.93;;;3.60;99.90;;;;;;5018252;28;20041;-91
2022/03/15 02:19:23;;;;;;;31.15;12.85;;;4.60;99.90;;;;;;5018586;28;20056;-92
2022/03/15 02:21:50;;;;;;;32.28;14.00;;;4.80;99.90;;;;;;4995243;28;20041;-92
2022/03/15 02:24:17;;;;;;;30.85;14.50;;;5.20;99.90;;;;;;5030851;28;20468;-92
2022/03/15 02:26:43;;;;;;;27.90;13.73;;;4.10;99.90;;;;;;5033798;28;20107;-93
2022/03/15 02:29:09;;;;;;;24.45;13.68;;;4.80;99.90;;;;;;4999552;28;20503;-92
2022/03/15 02:31:34;;;;;;;32.38;14.65;;;4.30;99.90;;;;;;5032834;28;20076;-92
2022/03/15 02:34:00;;;;;;;35.83;15.00;;;4.40;99.90;;;;;;5031611;28;20492;-92
2022/03/15 02:36:26;;;;;;;30.27;14.23;;;;;;;;;;5015247;28;20041;-92
2022/03/15 02:38:52;;;;;;;26.42;14.38;;;4.50;99.90;;;;;;5013876;28;20037;-91
2022/03/15 02:41:18;;;;;;;31.58;14.45;;;4.70;99.90;;;;;;5032651;28;20121;-91
2022/03/15 02:43:44;;;;;;;35.05;14.75;;;4.60;99.90;;;;;;5000343;28;20144;-91
2022/03/15 02:46:11;;;;;;;33.88;14.93;;;5.30;99.90;;;;;;5030711;28;20040;-91
2022/03/15 02:48:37;;;;;;;34.50;13.50;;;4.80;99.90;;;;;;5012694;28;20049;-91
2022/03/15 02:51:08;;;;;;;28.30;14.05;;;4.80;99.90;;;;;;4998548;28;20128;-91
2022/03/15 02:53:37;;;;;;;26.58;12.68;;;4.80;99.90;;;;;;5029444;28;20038;-91
2022/03/15 02:56:10;;;;;;;31.67;13.27;;;4.90;99.90;;;;;;5030091;28;20045;-91
2022/03/15 02:58:43;;;;;;;23.60;12.52;;;4.90;99.90;;;;;;5033116;28;20041;-92
2022/03/15 03:03:41;;;;;;;25.55;12.80;;;4.90;99.90;;;;;;4994404;28;20038;-93
2022/03/15 03:06:07;;;;;;;27.27;11.98;;;5.10;99.90;;;;;;4959395;28;20492;-93
2022/03/15 03:08:34;;;;;;;28.20;12.55;;;5.10;99.90;;;;;;4961221;28;20057;-93
2022/03/15 03:11:00;;;;;;;31.27;13.00;;;5.50;99.90;;;;;;4944075;28;20492;-93
2022/03/15 03:13:27;;;;;;;23.00;12.05;;;5.80;99.90;;;;;;4960394;28;20038;-91
2022/03/15 03:15:56;;;;;;;30.20;12.52;;;5.10;99.90;;;;;;4974981;28;20042;-92
2022/03/15 03:18:23;;;;;;;29.13;12.02;;;5.10;99.90;;;;;;4942804;28;20050;-92
2022/03/15 03:20:49;;;;;;;23.60;12.70;;;5.60;99.90;;;;;;4976528;28;20039;-92
2022/03/15 03:23:16;;;;;;;26.02;12.65;;;5.60;99.90;;;;;;4960343;28;20397;-92
2022/03/15 03:25:42;;;;;;;21.85;11.43;;;6.20;99.90;;;;;;4943537;28;20031;-92
2022/03/15 03:28:08;;;;;;;26.38;12.07;;;5.30;99.90;;;;;;4976205;28;20050;-92
2022/03/15 03:30:37;;;;;;;22.42;11.52;;;5.70;99.90;;;;;;4962700;28;20049;-91
2022/03/15 03:33:04;;;;;;;25.35;12.23;;;5.20;99.90;;;;;;4964412;28;20125;-92
2022/03/15 03:35:30;;;;;;;22.60;12.00;;;5.20;99.90;;;;;;4957625;28;20049;-92
2022/03/15 03:37:56;;;;;;;24.15;11.63;;;5.20;99.90;;;;;;4958731;28;20046;-92
2022/03/15 03:40:22;;;;;;;21.13;10.75;;;5.30;99.90;;;;;;4961551;28;20197;-92
2022/03/15 03:42:47;;;;;;;24.95;11.90;;;5.20;99.90;;;;;;4943381;28;20125;-91
2022/03/15 03:45:13;;;;;;;24.05;11.57;;;6.00;99.90;;;;;;4959504;28;20053;-93
2022/03/15 03:47:39;;;;;;;17.58;11.02;;;5.20;99.90;;;;;;4959701;28;20125;-93
2022/03/15 03:50:08;;;;;;;19.83;11.68;;;5.20;99.90;;;;;;4944545;28;20197;-93
2022/03/15 03:52:34;;;;;;;23.20;12.13;;;5.20;99.90;;;;;;4977122;28;20047;-92
2022/03/15 03:55:00;;;;;;;31.88;12.60;;;5.20;99.90;;;;;;4973144;28;20093;-92
2022/03/15 03:57:26;;;;;;;25.27;12.50;;;5.30;99.90;;;;;;4950345;28;20129;-92
2022/03/15 03:59:51;;;;;;;23.90;13.18;;;6.00;99.90;;;;;;4976770;28;20400;-93
2022/03/15 04:02:17;;;;;;;29.85;13.70;;;6.00;99.90;;;;;;4958680;28;20058;-92
2022/03/15 04:04:44;;;;;;;31.23;13.65;;;6.00;99.90;;;;;;4944302;28;20519;-92
2022/03/15 04:07:11;;;;;;;28.20;12.90;;;5.40;99.90;;;;;;4960780;28;20046;-91
2022/03/15 04:09:38;;;;;;;27.40;14.15;;;5.40;99.90;;;;;;4976542;28;20060;-92
2022/03/15 04:12:06;;;;;;;27.27;14.13;;;5.40;99.90;;;;;;4976858;28;20057;-93
2022/03/15 04:14:34;;;;;;;30.95;13.93;;;5.40;99.90;;;;;;4960525;28;20042;-92
2022/03/15 04:17:01;;;;;;;25.67;13.63;;;5.50;99.90;;;;;;4960662;28;20042;-93
2022/03/15 04:19:26;;;;;;;21.48;13.05;;;5.50;99.90;;;;;;4977124;28;20050;-91
2022/03/15 04:21:52;;;;;;;32.15;14.60;;;5.50;99.90;;;;;;4926371;28;20058;-91
2022/03/15 04:24:18;;;;;;;31.63;14.10;;;5.50;99.90;;;;;;4963032;28;20042;-91
2022/03/15 04:26:46;;;;;;;25.45;13.27;;;5.70;99.90;;;;;;4944599;28;20042;-92
2022/03/15 04:29:12;;;;;;;29.70;13.98;;;5.50;99.90;;;;;;4960482;28;20057;-91
2022/03/15 04:31:37;;;;;;;26.50;13.85;;;5.50;99.90;;;;;;4961837;28;20042;-91
2022/03/15 04:34:03;;;;;;;24.95;12.95;;;5.70;99.90;;;;;;4958134;28;20169;-92
2022/03/15 04:36:30;;;;;;;26.90;13.65;;;5.50;99.90;;;;;;4960125;28;20034;-93
2022/03/15 04:38:56;;;;;;;28.05;13.80;;;6.60;99.90;;;;;;4931599;28;20526;-93
2022/03/15 04:41:21;;;;;;;28.02;13.55;;;6.40;99.90;;;;;;4959013;28;20129;-93
2022/03/15 04:43:47;;;;;;;21.38;12.55;;;5.30;99.90;;;;;;4943947;28;20057;-92
2022/03/15 04:46:13;;;;;;;26.63;13.00;;;5.30;99.90;;;;;;4960125;28;20042;-93
2022/03/15 04:48:39;;;;;;;27.75;13.98;;;6.30;99.90;;;;;;4946805;28;20093;-93
2022/03/15 04:51:06;;;;;;;27.23;14.15;;;6.00;99.90;;;;;;4961175;28;20053;-93
2022/03/15 04:53:31;;;;;;;27.75;13.45;;;5.30;99.90;;;;;;4961436;28;20085;-93
2022/03/15 04:55:57;;;;;;;24.95;13.00;;;5.50;99.90;;;;;;4958952;28;20078;-94
2022/03/15 04:58:23;;;;;;;31.42;14.65;;;5.50;99.90;;;;;;4959768;28;20171;-94
2022/03/15 05:00:49;;;;;;;26.23;13.18;;;5.30;99.90;;;;;;4965848;28;20554;-94
2022/03/15 05:03:17;;;;;;;22.42;13.07;;;5.40;99.90;;;;;;4974421;28;20133;-94
2022/03/15 05:05:44;;;;;;;28.33;14.32;;;5.30;99.90;;;;;;4959526;28;20093;-94
2022/03/15 05:08:11;;;;;;;26.23;13.52;;;6.30;99.90;;;;;;4943785;28;20060;-93
2022/03/15 05:13:21;;;;;;;25.60;14.30;;;6.20;99.90;;;;;;4962088;28;20046;-94
2022/03/15 05:15:48;;;;;;;27.73;14.40;;;5.90;99.90;;;;;;4942121;28;20129;-94
2022/03/15 05:18:14;;;;;;;32.22;14.77;;;5.30;99.90;;;;;;4959442;28;20412;-94
2022/03/15 05:20:39;;;;;;;26.25;14.50;;;5.30;99.90;;;;;;4946060;28;20042;-93
2022/03/15 05:23:05;;;;;;;27.83;15.38;;;6.40;99.90;;;;;;4945079;28;20441;-94
2022/03/15 05:25:31;;;;;;;26.90;14.00;;;6.00;99.90;;;;;;4944134;28;20045;-93
2022/03/15 05:27:57;;;;;;;30.08;14.45;;;5.20;99.90;;;;;;4944257;28;20033;-95
2022/03/15 05:30:23;;;;;;;27.27;13.68;;;5.10;99.90;;;;;;4959271;28;20038;-93
2022/03/15 05:32:50;;;;;;;25.33;14.95;;;5.90;99.90;;;;;;4974652;28;20381;-93
2022/03/15 05:35:16;;;;;;;31.85;15.05;;;5.00;99.90;;;;;;4959060;28;20504;-94
2022/03/15 05:37:41;;;;;;;30.70;15.65;;;5.50;99.90;;;;;;4943167;28;20046;-94
2022/03/15 05:40:09;;;;;;;33.30;17.02;;;5.00;99.90;;;;;;4944749;28;20038;-94
2022/03/15 05:42:35;;;;;;;28.33;14.65;;;5.00;99.90;;;;;;4941553;28;20047;-91
2022/03/15 05:45:02;;;;;;;31.48;15.07;;;5.70;99.90;;;;;;4972911;28;20046;-91
2022/03/15 05:47:28;;;;;;;26.85;15.70;;;5.00;99.90;;;;;;4958917;28;20113;-91
2022/03/15 05:49:53;;;;;;;29.33;14.77;;;5.00;99.90;;;;;;4958896;28;20142;-91
2022/03/15 05:52:19;;;;;;;28.08;15.80;;;5.00;99.90;;;;;;4944797;28;20046;-90
2022/03/15 05:54:45;;;;;;;29.30;15.57;;;5.00;99.90;;;;;;4927572;28;20489;-91
2022/03/15 05:57:11;;;;;;;28.17;15.90;;;5.00;99.90;;;;;;4960502;28;20042;-91
2022/03/15 05:59:36;;;;;;;31.85;16.30;;;5.00;99.90;;;;;;4960483;28;20129;-93
2022/03/15 06:02:02;;;;;;;34.33;15.35;;;5.60;99.90;;;;;;4975117;28;20123;-93
2022/03/15 06:04:28;;;;;;;31.70;15.10;;;5.00;99.90;;;;;;4975979;28;20043;-92
2022/03/15 06:06:57;;;;;;;27.80;15.02;;;5.00;99.90;;;;;;4961245;28;20088;-91
2022/03/15 06:09:24;;;;;;;27.23;15.50;;;5.10;99.90;;;;;;4960143;28;20038;-92
2022/03/15 06:11:51;;;;;;;31.02;15.63;;;6.70;99.90;;;;;;4956078;28;20053;-91
2022/03/15 06:14:20;;;;;;;28.70;15.23;;;5.10;99.90;;;;;;4970530;28;20514;-91
2022/03/15 06:16:46;;;;;;;33.22;15.98;;;5.00;99.90;;;;;;4958766;28;20412;-91
2022/03/15 06:19:12;;;;;;;32.83;16.45;;;5.20;99.90;;;;;;4972102;28;20083;-92
2022/03/15 06:21:39;;;;;;;32.38;16.30;;;5.00;99.90;;;;;;4972231;28;20929;-92
2022/03/15 06:24:09;;;;;;;34.33;16.60;;;6.00;99.90;;;;;;4959981;28;20042;-93
2022/03/15 06:26:36;;;;;;;31.45;16.48;;;5.10;99.90;;;;;;4972759;28;20034;-91
2022/03/15 06:29:07;;;;;;;35.67;17.45;;;6.00;99.90;;;;;;4960346;28;20054;-92
2022/03/15 06:31:33;;;;;;;31.33;16.85;;;5.10;99.90;;;;;;4973764;28;20185;-90
2022/03/15 06:34:00;;;;;;;31.67;17.13;;;5.20;99.90;;;;;;4974872;28;20117;-90
2022/03/15 06:36:29;;;;;;;38.47;17.67;;;5.20;99.90;;;;;;4973419;28;20038;-91
2022/03/15 06:38:54;;;;;;;33.00;17.17;;;6.50;99.90;;;;;;4943012;28;20084;-91
2022/03/15 06:41:20;;;;;;;34.17;16.70;;;6.40;99.90;;;;;;4988946;28;20039;-90
2022/03/15 06:43:46;;;;;;;34.58;18.45;;;5.30;99.90;;;;;;4960713;28;20601;-91
2022/03/15 06:46:14;;;;;;;34.20;17.63;;;5.40;99.90;;;;;;4959959;28;20034;-90
2022/03/15 06:48:40;;;;;;;35.25;18.33;;;5.40;99.90;;;;;;4958969;28;20052;-92
2022/03/15 06:51:06;;;;;;;43.75;20.90;;;6.20;99.90;;;;;;4959798;28;20042;-92
2022/03/15 06:53:32;;;;;;;57.90;25.40;;;6.80;99.90;;;;;;4954507;28;20126;-92
2022/03/15 06:55:58;;;;;;;45.72;21.90;;;5.60;99.90;;;;;;4973815;28;20097;-92
2022/03/15 06:58:24;;;;;;;44.08;21.45;;;6.50;99.90;;;;;;4973316;28;20045;-92
2022/03/15 07:00:50;;;;;;;49.40;22.75;;;6.10;99.90;;;;;;4970500;28;20038;-90
2022/03/15 07:03:16;;;;;;;37.53;21.45;;;6.00;99.90;;;;;;4954264;28;20105;-91
2022/03/15 07:05:41;;;;;;;37.53;19.75;;;5.90;99.90;;;;;;4956562;28;20034;-92
2022/03/15 07:08:07;;;;;;;38.65;18.25;;;6.00;99.90;;;;;;4960239;28;20496;-92
2022/03/15 07:10:34;;;;;;;32.05;17.42;;;6.40;99.90;;;;;;4943177;28;20039;-93
2022/03/15 07:13:00;;;;;;;29.75;16.52;;;6.10;99.90;;;;;;4977360;28;20065;-93
2022/03/15 07:15:26;;;;;;;36.63;18.35;;;6.10;99.90;;;;;;4961540;28;20389;-93
2022/03/15 07:17:55;;;;;;;34.20;17.27;;;6.20;99.90;;;;;;4960942;28;20038;-93
2022/03/15 07:20:22;;;;;;;40.65;19.10;;;6.90;99.90;;;;;;4976284;28;20150;-93
2022/03/15 07:22:48;;;;;;;31.60;18.23;;;;;;;;;;4962731;28;20034;-89
2022/03/15 07:25:14;;;;;;;30.10;17.38;;;6.30;99.90;;;;;;4976677;28;20042;-89
2022/03/15 07:27:40;;;;;;;30.17;16.83;;;6.30;99.90;;;;;;4960813;28;20034;-89
2022/03/15 07:30:07;;;;;;;36.60;18.52;;;7.20;99.90;;;;;;4977434;28;20049;-89
2022/03/15 07:32:33;;;;;;;37.45;17.65;;;6.40;99.90;;;;;;4959477;28;20054;-91
2022/03/15 07:34:59;;;;;;;29.08;17.67;;;6.40;99.90;;;;;;4959379;28;20093;-91
2022/03/15 07:37:25;;;;;;;32.05;18.85;;;6.40;99.90;;;;;;4960061;28;20077;-91
2022/03/15 07:39:51;;;;;;;36.03;17.60;;;6.40;99.90;;;;;;4977077;28;20073;-90
2022/03/15 07:42:19;;;;;;;37.25;17.85;;;6.50;99.90;;;;;;4977780;28;20457;-91
2022/03/15 07:44:45;;;;;;;35.33;19.13;;;6.50;99.90;;;;;;4963044;28;20039;-91
2022/03/15 07:47:15;;;;;;;34.05;17.50;;;6.60;99.90;;;;;;4947842;28;20038;-92
2022/03/15 07:49:41;;;;;;;34.67;17.75;;;6.90;99.90;;;;;;4974660;28;20166;-92
2022/03/15 07:52:09;;;;;;;37.97;19.33;;;6.70;99.90;;;;;;4959532;28;20173;-92
2022/03/15 07:54:34;;;;;;;40.58;19.23;;;6.80;99.90;;;;;;4957398;28;20543;-93
2022/03/15 07:57:01;;;;;;;37.70;20.67;;;7.40;99.90;;;;;;4949570;28;20513;-90
2022/03/15 07:59:27;;;;;;;39.70;19.98;;;7.00;99.90;;;;;;4975431;28;20034;-94
2022/03/15 08:01:53;;;;;;;37.55;20.45;;;7.20;99.90;;;;;;4941290;28;20035;-93
2022/03/15 08:04:19;;;;;;;35.95;19.67;;;7.70;99.90;;;;;;4972525;28;20077;-93
2022/03/15 08:06:45;;;;;;;36.47;20.25;;;7.30;99.90;;;;;;4979668;28;20061;-94
2022/03/15 08:09:11;;;;;;;35.78;19.98;;;7.90;99.90;;;;;;4945729;28;20125;-94
2022/03/15 08:11:37;;;;;;;36.08;20.55;;;7.50;99.90;;;;;;4960866;28;20038;-90
2022/03/15 08:14:03;;;;;;;35.72;20.85;;;8.20;99.90;;;;;;4975628;28;20113;-91
2022/03/15 08:16:29;;;;;;;38.88;20.77;;;8.30;99.90;;;;;;4994080;28;20038;-90
2022/03/15 08:18:55;;;;;;;38.13;21.63;;;7.80;99.90;;;;;;4959970;28;20038;-89
2022/03/15 08:21:22;;;;;;;41.65;21.63;;;7.80;99.90;;;;;;4978368;28;20034;-89
2022/03/15 08:23:49;;;;;;;37.00;21.13;;;7.90;99.90;;;;;;4961608;28;20042;-89
2022/03/15 08:26:15;;;;;;;37.40;21.17;;;8.00;99.90;;;;;;4960021;28;20042;-89
2022/03/15 08:28:41;;;;;;;37.70;21.23;;;8.10;99.90;;;;;;4963136;28;20069;-91
2022/03/15 08:31:07;;;;;;;38.40;21.98;;;8.20;99.90;;;;;;4961051;28;20046;-91
2022/03/15 08:33:33;;;;;;;35.05;21.30;;;8.30;99.90;;;;;;4993302;28;20033;-91
2022/03/15 08:35:59;;;;;;;32.90;20.17;;;8.60;99.90;;;;;;4977002;28;20485;-92
2022/03/15 08:38:29;;;;;;;37.78;21.27;;;9.20;99.90;;;;;;4966857;28;20034;-91
2022/03/15 08:40:55;;;;;;;35.13;20.70;;;8.90;99.90;;;;;;4976789;28;20325;-91
2022/03/15 08:43:24;;;;;;;33.45;20.95;;;9.00;99.90;;;;;;4966982;28;20052;-91
2022/03/15 08:45:51;;;;;;;31.98;20.02;;;9.10;99.90;;;;;;4976935;28;20046;-89
2022/03/15 08:48:17;;;;;;;37.88;21.55;;;9.10;99.90;;;;;;4976888;28;20026;-89
2022/03/15 08:50:43;;;;;;;34.97;20.90;;;9.20;99.90;;;;;;4980552;28;20550;-89
2022/03/15 08:53:09;;;;;;;39.33;22.13;;;9.10;99.90;;;;;;4960410;28;20046;-89
2022/03/15 08:55:35;;;;;;;37.25;22.10;;;9.10;99.90;;;;;;4974901;28;20588;-91
2022/03/15 08:58:02;;;;;;;34.95;20.80;;;10.20;99.90;;;;;;4967757;28;20121;-92
2022/03/15 09:00:28;;;;;;;37.38;22.02;;;9.20;99.90;;;;;;4981399;28;20038;-91
2022/03/15 09:02:54;;;;;;;30.95;20.10;;;9.20;99.90;;;;;;4976631;28;20054;-92
2022/03/15 09:05:20;;;;;;;39.47;21.60;;;9.20;99.90;;;;;;4960157;28;20044;-92
2022/03/15 09:07:50;;;;;;;34.95;20.63;;;9.20;99.90;;;;;;4959715;28;20034;-91
2022/03/15 09:10:16;;;;;;;33.92;20.67;;;9.20;99.90;;;;;;4989553;28;20143;-91
2022/03/15 09:12:42;;;;;;;34.95;21.17;;;9.10;99.90;;;;;;4977186;28;20042;-91
2022/03/15 09:15:09;;;;;;;34.45;21.50;;;9.20;99.90;;;;;;4963067;28;20053;-91
2022/03/15 09:17:37;;;;;;;36.03;22.85;;;9.10;99.90;;;;;;4976126;28;20046;-92
2022/03/15 09:20:05;;;;;;;35.67;22.05;;;9.00;99.90;;;;;;4956302;28;20039;-91
2022/03/15 09:22:31;;;;;;;36.25;22.52;;;9.10;99.90;;;;;;4960181;28;20392;-91
2022/03/15 09:24:56;;;;;;;36.53;21.20;;;10.10;99.90;;;;;;4979261;28;20045;-91
2022/03/15 09:27:22;;;;;;;35.03;20.80;;;9.00;99.90;;;;;;4968558;28;20074;-91
2022/03/15 09:29:49;;;;;;;35.28;21.88;;;9.60;99.90;;;;;;4976236;28;20045;-90
2022/03/15 09:32:15;;;;;;;34.75;21.10;;;9.20;99.90;;;;;;4976497;28;20422;-91
2022/03/15 09:34:44;;;;;;;36.10;21.48;;;9.10;99.90;;;;;;4960387;28;20049;-91
2022/03/15 09:37:10;;;;;;;35.05;22.27;;;9.20;99.90;;;;;;4981820;28;20076;-91
2022/03/15 09:39:36;;;;;;;37.40;21.98;;;9.20;99.90;;;;;;4974905;28;20445;-91
2022/03/15 09:42:09;;;;;;;34.78;21.67;;;9.30;99.90;;;;;;4977225;28;20448;-91
2022/03/15 09:44:38;;;;;;;35.80;21.10;;;9.40;99.90;;;;;;4959288;28;20039;-91
2022/03/15 09:47:06;;;;;;;32.50;20.80;;;9.50;99.90;;;;;;4974155;28;20057;-94
2022/03/15 09:49:33;;;;;;;29.70;20.45;;;9.70;99.90;;;;;;4965604;28;20034;-94
2022/03/15 09:51:59;;;;;;;34.40;20.60;;;9.90;99.90;;;;;;4977789;28;20061;-91
2022/03/15 09:54:29;;;;;;;33.70;19.75;;;10.00;99.90;;;;;;4975827;28;20078;-92
2022/03/15 09:56:56;;;;;;;30.42;20.27;;;10.20;99.90;;;;;;4960732;28;20081;-91
2022/03/15 09:59:23;;;;;;;32.03;20.55;;;10.10;99.90;;;;;;4949660;28;20039;-91
2022/03/15 10:01:51;;;;;;;36.15;20.77;;;10.30;99.90;;;;;;4960997;28;20489;-92
2022/03/15 10:04:19;;;;;;;34.22;19.83;;;10.30;99.90;;;;;;4979540;28;20484;-91
2022/03/15 10:06:45;;;;;;;32.17;19.30;;;10.30;99.90;;;;;;4963582;28;20780;-92
2022/03/15 10:09:12;;;;;;;30.17;19.73;;;10.20;99.90;;;;;;4958778;28;20053;-91
2022/03/15 10:11:38;;;;;;;35.80;20.17;;;10.30;99.90;;;;;;4979149;28;20069;-92
2022/03/15 10:14:05;;;;;;;33.63;21.00;;;10.30;99.90;;;;;;4963321;28;20484;-91
2022/03/15 10:16:32;;;;;;;31.85;20.65;;;10.30;99.90;;;;;;4981298;28;20074;-90
2022/03/15 10:18:59;;;;;;;35.40;21.35;;;10.20;99.90;;;;;;4981291;28;20035;-91
2022/03/15 10:21:39;;;;;;;36.55;20.98;;;10.30;99.90;;;;;;4962600;28;20086;-90
2022/03/15 10:24:07;;;;;;;32.45;19.40;;;10.10;99.90;;;;;;4982849;28;20054;-89
2022/03/15 10:26:40;;;;;;;32.42;19.90;;;10.10;99.90;;;;;;4982540;28;20504;-91
2022/03/15 10:29:11;;;;;;;30.40;18.42;;;10.10;99.90;;;;;;4965418;28;20216;-91
2022/03/15 10:31:37;;;;;;;33.42;19.35;;;10.10;99.90;;;;;;4950772;28;20134;-91
2022/03/15 10:34:07;;;;;;;26.83;18.23;;;10.10;99.90;;;;;;4947894;28;20121;-91
2022/03/15 10:36:39;;;;;;;28.50;18.15;;;10.10;99.90;;;;;;4978739;28;20420;-91
2022/03/15 10:39:07;;;;;;;32.42;20.48;;;10.10;99.90;;;;;;4979494;28;20515;-91
2022/03/15 10:41:45;;;;;;;29.88;19.73;;;10.20;99.90;;;;;;4983507;28;20042;-91
2022/03/15 10:44:38;;;;;;;28.67;18.73;;;9.90;99.90;;;;;;4965787;28;20085;-92
2022/03/15 10:47:07;;;;;;;29.27;19.10;;;9.90;99.90;;;;;;4959146;28;20129;-91
2022/03/15 10:49:46;;;;;;;30.05;19.60;;;9.80;99.90;;;;;;4978745;28;20049;-91
2022/03/15 10:52:13;;;;;;;29.30;17.88;;;9.80;99.90;;;;;;4973426;28;20089;-92
2022/03/15 10:54:39;;;;;;;26.95;18.50;;;9.80;99.90;;;;;;4978185;28;20046;-92
2022/03/15 10:57:05;;;;;;;30.70;18.77;;;10.20;99.90;;;;;;4978746;28;20042;-92
2022/03/15 10:59:30;;;;;;;28.77;18.65;;;9.70;99.90;;;;;;4963292;28;20077;-91
2022/03/15 11:01:56;;;;;;;31.40;19.48;;;9.70;99.90;;;;;;4945396;28;20173;-90
2022/03/15 11:04:23;;;;;;;27.52;18.30;;;9.60;99.90;;;;;;4951430;28;20135;-90
2022/03/15 11:06:51;;;;;;;31.13;19.42;;;9.50;99.90;;;;;;4979614;28;20034;-91
2022/03/15 11:09:22;;;;;;;28.05;18.55;;;9.50;99.90;;;;;;4995160;28;20042;-90
2022/03/15 11:12:05;;;;;;;32.65;19.25;;;9.50;99.90;;;;;;4961330;28;20129;-90
2022/03/15 11:14:54;;;;;;;30.02;17.70;;;9.50;99.90;;;;;;4972085;28;20045;-88
2022/03/15 11:17:24;;;;;;;30.30;17.05;;;9.40;99.90;;;;;;4979627;28;20042;-88
2022/03/15 11:19:53;;;;;;;30.15;17.17;;;9.40;99.90;;;;;;4977808;28;20042;-88
2022/03/15 11:22:28;;;;;;;24.42;16.48;;;10.00;99.90;;;;;;4983840;28;20042;-88
2022/03/15 11:25:04;;;;;;;26.70;16.90;;;9.30;99.90;;;;;;4961482;28;20045;-88
2022/03/15 11:27:36;;;;;;;25.60;16.02;;;9.40;99.90;;;;;;4977753;28;20100;-88
2022/03/15 11:30:06;;;;;;;28.58;16.52;;;9.40;99.90;;;;;;4974878;28;20046;-87
2022/03/15 11:32:35;;;;;;;25.10;16.02;;;9.50;99.90;;;;;;4985651;28;20169;-88
2022/03/15 11:35:08;;;;;;;25.02;16.00;;;9.60;99.90;;;;;;4977971;28;20045;-88
2022/03/15 11:37:34;;;;;;;25.30;15.70;;;9.80;99.90;;;;;;4977538;28;20476;-89
2022/03/15 11:40:04;;;;;;;24.13;15.02;;;9.90;99.90;;;;;;4977308;28;20552;-89
2022/03/15 11:42:32;;;;;;;23.58;15.52;;;10.00;99.90;;;;;;4975547;28;20053;-89
2022/03/15 11:45:28;;;;;;;27.50;15.52;;;10.20;99.90;;;;;;4958818;28;20034;-89
2022/03/15 11:48:21;;;;;;;25.63;15.52;;;10.30;99.90;;;;;;4974583;28;20046;-89
2022/03/15 11:51:00;;;;;;;20.83;14.90;;;10.40;99.90;;;;;;4968807;28;20393;-90
2022/03/15 11:53:42;;;;;;;21.45;13.82;;;10.50;99.90;;;;;;4976832;28;20048;-88
2022/03/15 11:56:26;;;;;;;27.08;13.50;;;10.70;99.90;;;;;;4971461;28;20125;-87
2022/03/15 11:58:57;;;;;;;21.92;13.82;;;10.90;99.90;;;;;;4975769;28;20030;-87
2022/03/15 12:01:23;;;;;;;21.15;13.63;;;11.20;99.90;;;;;;4973024;28;20129;-86
2022/03/15 12:04:00;;;;;;;19.85;12.93;;;11.30;99.90;;;;;;4974929;28;20046;-87
2022/03/15 12:06:30;;;;;;;;;;;11.60;99.90;;;;;;4959567;28;20073;-88
2022/03/15 12:09:01;;;;;;;20.40;12.32;;;11.70;99.90;;;;;;4993121;28;20013;-88
2022/03/15 12:11:34;;;;;;;18.95;12.82;;;11.90;99.90;;;;;;4990987;28;20038;-88
2022/03/15 12:14:08;;;;;;;18.20;11.07;;;12.00;99.90;;;;;;4959570;28;20437;-88
2022/03/15 12:16:41;;;;;;;18.17;10.98;;;12.10;99.90;;;;;;4973577;28;20038;-88
2022/03/15 12:21:58;;;;;;;18.35;11.15;;;12.40;99.90;;;;;;4973499;28;20069;-88
2022/03/15 12:24:39;;;;;;;18.27;11.80;;;12.60;99.90;;;;;;4973670;28;20038;-89
2022/03/15 12:27:10;;;;;;;18.52;10.88;;;13.50;99.90;;;;;;4973386;28;20050;-88
2022/03/15 12:29:37;;;;;;;16.33;9.88;;;13.20;99.90;;;;;;4972548;28;20042;-89
2022/03/15 12:32:14;;;;;;;15.60;9.85;;;13.40;99.90;;;;;;4974570;28;20095;-88
2022/03/15 12:34:42;;;;;;;16.35;9.77;;;13.50;99.90;;;;;;4980214;28;20030;-88
2022/03/15 12:37:09;;;;;;;14.73;8.75;;;13.50;99.90;;;;;;4976807;28;20515;-89
2022/03/15 12:39:35;;;;;;;12.88;8.75;;;13.50;99.90;;;;;;4974807;28;20050;-89
2022/03/15 12:42:14;;;;;;;15.90;8.52;;;13.60;99.90;;;;;;4972061;28;20074;-89
2022/03/15 12:44:48;;;;;;;13.45;8.68;;;13.70;99.90;;;;;;4970507;28;20050;-89
2022/03/15 12:47:17;;;;;;;16.17;8.45;;;14.40;99.90;;;;;;4964067;28;20141;-91
2022/03/15 12:50:16;;;;;;;10.25;7.28;;;13.80;99.90;;;;;;4953399;28;20030;-91